createdAt,value
2023-05-23T00:01:14.906Z,13.50
2023-05-23T00:06:21.446Z,9.15
2023-05-23T00:16:31.093Z,9.07
2023-05-23T00:21:34.630Z,6.90
2023-05-23T00:26:39.617Z,11.60
2023-05-23T00:31:46.492Z,6.65
2023-05-23T00:36:50.990Z,11.32
2023-05-23T00:41:56.345Z,6.32
2023-05-23T00:47:00.454Z,8.57
2023-05-23T00:52:04.518Z,7.63
2023-05-23T00:57:09.494Z,7.80
2023-05-23T01:02:14.171Z,7.18
2023-05-23T01:07:17.725Z,7.53
2023-05-23T01:12:29.658Z,9.05
2023-05-23T01:17:42.164Z,7.25
2023-05-23T01:23:11.817Z,8.60
2023-05-23T01:28:20.036Z,7.13
2023-05-23T01:33:27.684Z,8.40
2023-05-23T01:38:31.345Z,7.38
2023-05-23T01:43:36.549Z,7.18
2023-05-23T01:53:44.477Z,7.13
2023-05-23T01:58:49.462Z,6.93
2023-05-23T02:03:53.010Z,9.52
2023-05-23T02:08:57.810Z,10.68
2023-05-23T02:14:02.690Z,10.38
2023-05-23T02:19:06.475Z,12.00
2023-05-23T02:24:09.935Z,9.65
2023-05-23T02:29:15.354Z,8.07
2023-05-23T02:34:18.734Z,9.35
2023-05-23T02:39:22.296Z,6.45
2023-05-23T02:44:28.089Z,8.20
2023-05-23T02:49:31.478Z,8.23
2023-05-23T02:54:34.951Z,6.32
2023-05-23T02:59:39.796Z,7.97
2023-05-23T03:04:43.348Z,8.00
2023-05-23T03:09:46.798Z,8.52
2023-05-23T03:14:52.130Z,9.55
2023-05-23T03:19:55.991Z,9.40
2023-05-23T03:24:59.512Z,9.32
2023-05-23T03:30:06.211Z,9.73
2023-05-23T03:35:10.383Z,6.50
2023-05-23T03:40:14.212Z,11.40
2023-05-23T03:45:19.106Z,6.95
2023-05-23T03:50:22.760Z,7.95
2023-05-23T03:55:26.427Z,7.88
2023-05-23T04:00:31.423Z,7.32
2023-05-23T04:05:36.614Z,13.02
2023-05-23T04:10:43.110Z,8.80
2023-05-23T04:15:48.309Z,6.57
2023-05-23T04:20:54.245Z,7.57
2023-05-23T04:25:58.720Z,7.20
2023-05-23T04:31:08.145Z,6.88
2023-05-23T04:36:13.475Z,9.82
2023-05-23T04:41:23.528Z,6.38
2023-05-23T04:46:42.030Z,10.10
2023-05-23T04:51:49.906Z,7.32
2023-05-23T04:57:01.821Z,11.10
2023-05-23T05:02:07.906Z,10.30
2023-05-23T05:07:12.472Z,10.43
2023-05-23T05:12:16.735Z,7.90
2023-05-23T05:17:21.659Z,8.55
2023-05-23T05:22:43.133Z,9.52
2023-05-23T05:27:48.948Z,14.60
2023-05-23T05:32:58.271Z,8.55
2023-05-23T05:38:05.146Z,13.07
2023-05-23T05:43:08.749Z,8.25
2023-05-23T05:48:14.122Z,12.48
2023-05-23T05:53:17.720Z,8.55
2023-05-23T05:58:21.442Z,9.30
2023-05-23T06:03:32.836Z,12.10
2023-05-23T06:08:38.957Z,9.68
2023-05-23T06:13:44.451Z,12.52
2023-05-23T06:23:55.537Z,9.68
2023-05-23T06:28:59.476Z,10.75
2023-05-23T06:34:05.257Z,8.20
2023-05-23T06:44:14.886Z,13.65
2023-05-23T06:49:20.064Z,12.75
2023-05-23T06:54:24.626Z,16.90
2023-05-23T06:59:29.159Z,11.18
2023-05-23T07:04:34.109Z,12.52
2023-05-23T07:09:43.172Z,10.50
2023-05-23T07:14:51.609Z,12.02
2023-05-23T07:19:58.351Z,18.42
2023-05-23T07:25:02.703Z,11.07
2023-05-23T07:30:10.003Z,11.75
2023-05-23T07:35:17.016Z,11.10
2023-05-23T07:40:22.675Z,9.43
2023-05-23T07:45:26.266Z,13.52
2023-05-23T07:50:31.664Z,9.57
2023-05-23T07:55:36.083Z,9.65
2023-05-23T08:00:41.828Z,8.23
2023-05-23T08:05:58.788Z,10.82
2023-05-23T08:11:02.509Z,11.02
2023-05-23T08:16:15.645Z,9.57
2023-05-23T08:21:20.628Z,9.70
2023-05-23T08:26:24.315Z,12.38
2023-05-23T08:31:28.716Z,11.18
2023-05-23T08:36:37.061Z,9.25
2023-05-23T08:41:42.972Z,10.15
2023-05-23T08:46:53.040Z,9.02
2023-05-23T08:52:17.251Z,8.02
2023-05-23T08:57:24.942Z,8.43
2023-05-23T09:02:34.669Z,10.63
2023-05-23T09:12:55.570Z,11.68
2023-05-23T09:18:03.640Z,8.55
2023-05-23T09:23:13.910Z,12.90
2023-05-23T09:28:17.891Z,13.10
2023-05-23T09:33:22.403Z,10.18
2023-05-23T09:38:28.507Z,8.80
2023-05-23T09:43:32.129Z,10.45
2023-05-23T09:48:36.040Z,11.27
2023-05-23T09:53:41.099Z,10.13
2023-05-23T09:58:47.598Z,10.45
2023-05-23T10:03:57.314Z,7.93
2023-05-23T10:09:05.145Z,12.13
2023-05-23T10:14:10.829Z,11.00
2023-05-23T10:19:23.840Z,10.45
2023-05-23T10:24:29.149Z,12.07
2023-05-23T10:29:33.935Z,9.73
2023-05-23T10:34:41.908Z,10.80
2023-05-23T10:39:57.357Z,9.18
2023-05-23T10:45:18.328Z,11.13
2023-05-23T10:50:34.138Z,17.33
2023-05-23T10:55:39.034Z,12.13
2023-05-23T11:05:54.262Z,14.98
2023-05-23T11:11:02.243Z,20.02
2023-05-23T11:16:23.952Z,21.38
2023-05-23T11:21:30.107Z,22.25
2023-05-23T11:26:35.004Z,22.67
2023-05-23T11:36:42.271Z,21.10
2023-05-23T11:41:58.546Z,20.50
2023-05-23T11:47:03.406Z,17.70
2023-05-23T11:57:14.105Z,21.33
2023-05-23T12:02:17.840Z,23.73
2023-05-23T12:07:21.489Z,23.33
2023-05-23T12:12:26.448Z,21.10
2023-05-23T12:17:30.338Z,27.08
2023-05-23T12:22:33.891Z,21.50
2023-05-23T12:27:40.704Z,23.47
2023-05-23T12:32:45.593Z,25.52
2023-05-23T12:42:54.922Z,17.40
2023-05-23T12:47:58.286Z,22.45
2023-05-23T12:53:01.651Z,24.38
2023-05-23T12:58:07.252Z,23.33
2023-05-23T13:03:10.839Z,25.80
2023-05-23T13:08:14.340Z,26.42
2023-05-23T13:13:19.707Z,22.98
2023-05-23T13:18:23.320Z,28.35
2023-05-23T13:23:26.795Z,26.35
2023-05-23T14:21:25.790Z,18.08
2023-05-23T14:26:29.408Z,25.48
2023-05-23T14:31:32.777Z,19.90
2023-05-23T14:36:37.742Z,16.70
2023-05-23T14:46:48.480Z,12.18
2023-05-23T14:51:53.315Z,11.80
2023-05-23T14:56:56.863Z,14.73
2023-05-23T15:02:00.386Z,12.20
2023-05-23T15:07:05.866Z,12.13
2023-05-23T15:12:09.986Z,12.23
2023-05-23T15:17:19.764Z,13.70
2023-05-23T15:22:37.652Z,9.70
2023-05-23T15:27:42.611Z,12.60
2023-05-23T15:37:52.562Z,11.35
2023-05-23T15:42:56.416Z,13.90
2023-05-23T15:47:59.858Z,14.23
2023-05-23T15:53:04.786Z,13.52
2023-05-23T15:58:09.491Z,13.32
2023-05-23T16:03:13.176Z,10.40
2023-05-23T16:08:18.838Z,11.02
2023-05-23T16:13:22.298Z,12.43
2023-05-23T16:18:25.725Z,11.15
2023-05-23T16:23:30.656Z,14.80
2023-05-23T16:28:34.012Z,12.20
2023-05-23T16:33:38.097Z,13.63
2023-05-23T16:38:42.867Z,17.58
2023-05-23T16:43:46.516Z,10.00
2023-05-23T16:48:50.068Z,10.50
2023-05-23T16:53:54.813Z,7.60
2023-05-23T16:58:58.216Z,8.43
2023-05-23T17:04:01.621Z,9.15
2023-05-23T17:09:06.464Z,6.28
2023-05-23T17:14:10.127Z,6.30
2023-05-23T17:19:14.273Z,7.80
2023-05-23T17:24:19.433Z,5.90
2023-05-23T17:29:22.904Z,5.05
2023-05-23T17:34:26.452Z,7.35
2023-05-23T17:39:31.233Z,10.73
2023-05-23T17:44:35.154Z,8.65
2023-05-23T17:49:38.863Z,7.25
2023-05-23T17:54:43.472Z,10.75
2023-05-23T17:59:46.983Z,10.30
2023-05-23T18:04:51.052Z,6.13
2023-05-23T18:09:59.638Z,13.30
2023-05-23T18:15:03.356Z,6.72
2023-05-23T18:20:08.604Z,5.70
2023-05-23T18:25:19.309Z,9.60
2023-05-23T18:30:22.958Z,7.88
2023-05-23T18:35:26.462Z,10.93
2023-05-23T18:40:31.342Z,11.63
2023-05-23T18:50:40.382Z,10.45
2023-05-23T18:55:45.233Z,9.65
2023-05-23T19:00:49.087Z,15.93
2023-05-23T19:05:52.660Z,11.48
2023-05-23T19:10:58.633Z,11.88
2023-05-23T19:16:02.166Z,10.68
2023-05-23T19:21:05.943Z,11.35
2023-05-23T19:26:11.010Z,6.72
2023-05-23T19:36:18.559Z,8.38
2023-05-23T19:41:23.302Z,6.88
2023-05-23T19:46:28.829Z,16.85
2023-05-23T19:51:32.547Z,11.90
2023-05-23T19:56:38.297Z,8.70
2023-05-23T20:01:41.947Z,7.45
2023-05-23T20:06:45.410Z,8.45
2023-05-23T20:11:50.120Z,9.95
2023-05-23T20:16:53.985Z,14.13
2023-05-23T20:21:57.437Z,14.68
2023-05-23T20:27:02.533Z,10.30
2023-05-23T20:32:06.880Z,13.73
2023-05-23T20:37:13.891Z,11.70
2023-05-23T20:42:19.139Z,12.02
2023-05-23T20:52:26.100Z,11.25
2023-05-23T20:57:30.950Z,9.27
2023-05-23T21:02:34.439Z,10.35
2023-05-23T21:07:38.352Z,12.00
2023-05-23T21:12:49.283Z,13.23
2023-05-23T21:17:53.540Z,7.85
2023-05-23T21:22:58.059Z,9.07
2023-05-23T21:28:03.178Z,10.60
2023-05-23T21:33:31.889Z,9.57
2023-05-23T21:38:37.477Z,6.03
2023-05-23T21:43:43.177Z,10.73
2023-05-23T21:48:46.689Z,15.60
2023-05-23T21:53:50.227Z,11.32
2023-05-23T21:58:54.962Z,11.05
2023-05-23T22:03:58.425Z,16.55
2023-05-23T22:09:01.906Z,15.45
2023-05-23T22:14:06.625Z,13.10
2023-05-23T22:19:12.405Z,9.88
2023-05-23T22:24:16.670Z,16.58
2023-05-23T22:29:21.691Z,8.82
2023-05-23T22:34:25.054Z,8.68
2023-05-23T22:39:28.376Z,15.35
2023-05-23T22:44:33.244Z,8.05
2023-05-23T22:49:37.599Z,14.35
2023-05-23T22:54:41.067Z,14.02
2023-05-23T22:59:45.875Z,8.23
2023-05-23T23:04:49.239Z,14.30
2023-05-23T23:09:52.571Z,11.98
2023-05-23T23:14:57.420Z,8.43
2023-05-23T23:20:01.197Z,12.65
2023-05-23T23:25:06.706Z,8.73
2023-05-23T23:35:15.318Z,10.02
2023-05-23T23:40:18.796Z,9.77
2023-05-23T23:45:23.557Z,11.85
2023-05-23T23:50:26.976Z,8.52
2023-05-23T23:55:30.838Z,8.88
